sensor_id;sensor_type;location;lat;lon;timestamp;pressure;altitude;pressure_sealevel;temperature;humidity
33280;BME280;20403;43.114;12.434;2023-02-28T00:00:20;99234.66;;;6.57;100.00
33280;BME280;20403;43.114;12.434;2023-02-28T00:02:46;99235.63;;;6.56;100.00
33280;BME280;20403;43.114;12.434;2023-02-28T00:05:15;99232.81;;;6.50;100.00
33280;BME280;20403;43.114;12.434;2023-02-28T00:07:41;99232.03;;;6.50;100.00
33280;BME280;20403;43.114;12.434;2023-02-28T00:10:12;99236.59;;;6.48;100.00
33280;BME280;20403;43.114;12.434;2023-02-28T00:12:38;99237.78;;;6.45;100.00
33280;BME280;20403;43.114;12.434;2023-02-28T00:15:09;99234.00;;;6.48;100.00
33280;BME280;20403;43.114;12.434;2023-02-28T00:17:34;99238.78;;;6.51;100.00
33280;BME280;20403;43.114;12.434;2023-02-28T00:20:00;99241.34;;;6.44;100.00
33280;BME280;20403;43.114;12.434;2023-02-28T00:22:30;99243.09;;;6.37;100.00
33280;BME280;20403;43.114;12.434;2023-02-28T00:24:55;99244.31;;;6.41;100.00
33280;BME280;20403;43.114;12.434;2023-02-28T00:27:21;99235.38;;;6.44;100.00
33280;BME280;20403;43.114;12.434;2023-02-28T00:29:46;99229.38;;;6.43;100.00
33280;BME280;20403;43.114;12.434;2023-02-28T00:32:12;99234.13;;;6.40;100.00
33280;BME280;20403;43.114;12.434;2023-02-28T00:34:38;99239.28;;;6.33;100.00
33280;BME280;20403;43.114;12.434;2023-02-28T00:37:05;99239.88;;;6.35;100.00
33280;BME280;20403;43.114;12.434;2023-02-28T00:39:31;99246.03;;;6.27;100.00
33280;BME280;20403;43.114;12.434;2023-02-28T00:41:56;99248.66;;;6.34;100.00
33280;BME280;20403;43.114;12.434;2023-02-28T00:44:22;99238.44;;;6.26;100.00
33280;BME280;20403;43.114;12.434;2023-02-28T00:46:47;99235.28;;;6.24;100.00
33280;BME280;20403;43.114;12.434;2023-02-28T00:49:12;99232.69;;;6.24;100.00
33280;BME280;20403;43.114;12.434;2023-02-28T00:51:38;99239.06;;;6.28;100.00
33280;BME280;20403;43.114;12.434;2023-02-28T00:54:03;99232.56;;;6.39;100.00
33280;BME280;20403;43.114;12.434;2023-02-28T00:56:28;99235.31;;;6.37;100.00
33280;BME280;20403;43.114;12.434;2023-02-28T00:58:54;99231.81;;;6.45;100.00
33280;BME280;20403;43.114;12.434;2023-02-28T01:01:19;99232.94;;;6.36;100.00
33280;BME280;20403;43.114;12.434;2023-02-28T01:03:45;99222.34;;;6.30;100.00
33280;BME280;20403;43.114;12.434;2023-02-28T01:06:10;99224.75;;;6.32;100.00
33280;BME280;20403;43.114;12.434;2023-02-28T01:08:35;99228.34;;;6.31;100.00
33280;BME280;20403;43.114;12.434;2023-02-28T01:11:12;99223.50;;;6.28;100.00
33280;BME280;20403;43.114;12.434;2023-02-28T01:13:37;99225.50;;;6.26;100.00
33280;BME280;20403;43.114;12.434;2023-02-28T01:16:03;99221.13;;;6.26;100.00
33280;BME280;20403;43.114;12.434;2023-02-28T01:18:28;99226.44;;;6.18;100.00
33280;BME280;20403;43.114;12.434;2023-02-28T01:20:54;99223.69;;;6.20;100.00
33280;BME280;20403;43.114;12.434;2023-02-28T01:23:21;99221.31;;;6.25;100.00
33280;BME280;20403;43.114;12.434;2023-02-28T01:25:48;99217.53;;;6.27;100.00
33280;BME280;20403;43.114;12.434;2023-02-28T01:28:14;99220.53;;;6.24;100.00
33280;BME280;20403;43.114;12.434;2023-02-28T01:30:39;99212.75;;;6.24;100.00
33280;BME280;20403;43.114;12.434;2023-02-28T01:33:05;99218.34;;;6.28;100.00
33280;BME280;20403;43.114;12.434;2023-02-28T01:35:35;99216.88;;;6.19;100.00
33280;BME280;20403;43.114;12.434;2023-02-28T01:38:01;99213.38;;;6.26;100.00
33280;BME280;20403;43.114;12.434;2023-02-28T01:40:26;99204.38;;;6.22;100.00
33280;BME280;20403;43.114;12.434;2023-02-28T01:42:52;99201.75;;;6.16;100.00
33280;BME280;20403;43.114;12.434;2023-02-28T01:45:31;99199.63;;;6.32;100.00
33280;BME280;20403;43.114;12.434;2023-02-28T01:48:05;99190.84;;;6.27;100.00
33280;BME280;20403;43.114;12.434;2023-02-28T01:50:38;99194.81;;;6.23;100.00
33280;BME280;20403;43.114;12.434;2023-02-28T01:53:07;99197.84;;;6.26;100.00
33280;BME280;20403;43.114;12.434;2023-02-28T01:55:34;99196.00;;;6.20;100.00
33280;BME280;20403;43.114;12.434;2023-02-28T01:58:02;99197.63;;;6.28;100.00
33280;BME280;20403;43.114;12.434;2023-02-28T02:00:30;99191.44;;;6.22;100.00
33280;BME280;20403;43.114;12.434;2023-02-28T02:03:04;99193.09;;;6.02;100.00
33280;BME280;20403;43.114;12.434;2023-02-28T02:05:31;99193.19;;;6.15;100.00
33280;BME280;20403;43.114;12.434;2023-02-28T02:08:02;99187.00;;;6.16;100.00
33280;BME280;20403;43.114;12.434;2023-02-28T02:10:39;99192.63;;;6.20;100.00
33280;BME280;20403;43.114;12.434;2023-02-28T02:18:47;99189.81;;;6.21;100.00
33280;BME280;20403;43.114;12.434;2023-02-28T02:27:10;99187.63;;;6.18;100.00
33280;BME280;20403;43.114;12.434;2023-02-28T02:43:49;99190.78;;;6.14;100.00
33280;BME280;20403;43.114;12.434;2023-02-28T02:48:45;99184.88;;;6.26;100.00
33280;BME280;20403;43.114;12.434;2023-02-28T02:51:15;99182.28;;;6.26;100.00
33280;BME280;20403;43.114;12.434;2023-02-28T02:53:47;99173.53;;;6.27;100.00
33280;BME280;20403;43.114;12.434;2023-02-28T02:56:18;99175.50;;;6.25;100.00
33280;BME280;20403;43.114;12.434;2023-02-28T02:58:47;99179.34;;;6.36;100.00
33280;BME280;20403;43.114;12.434;2023-02-28T03:01:22;99177.94;;;6.34;100.00
33280;BME280;20403;43.114;12.434;2023-02-28T03:04:05;99177.94;;;6.34;100.00
33280;BME280;20403;43.114;12.434;2023-02-28T03:06:31;99186.66;;;6.26;100.00
33280;BME280;20403;43.114;12.434;2023-02-28T03:08:57;99179.28;;;6.23;100.00
33280;BME280;20403;43.114;12.434;2023-02-28T03:11:23;99174.09;;;6.23;100.00
33280;BME280;20403;43.114;12.434;2023-02-28T03:13:58;99169.13;;;6.28;100.00
33280;BME280;20403;43.114;12.434;2023-02-28T03:22:29;99181.28;;;6.27;100.00
33280;BME280;20403;43.114;12.434;2023-02-28T03:27:54;99185.06;;;6.25;100.00
33280;BME280;20403;43.114;12.434;2023-02-28T03:30:25;99177.72;;;6.35;100.00
33280;BME280;20403;43.114;12.434;2023-02-28T03:32:56;99172.94;;;6.32;100.00
33280;BME280;20403;43.114;12.434;2023-02-28T03:35:26;99179.34;;;6.36;100.00
33280;BME280;20403;43.114;12.434;2023-02-28T03:37:56;99175.34;;;6.34;100.00
33280;BME280;20403;43.114;12.434;2023-02-28T03:40:28;99172.94;;;6.32;100.00
33280;BME280;20403;43.114;12.434;2023-02-28T03:43:01;99177.34;;;6.31;100.00
33280;BME280;20403;43.114;12.434;2023-02-28T03:45:30;99173.97;;;6.38;100.00
33280;BME280;20403;43.114;12.434;2023-02-28T03:48:15;99181.88;;;6.23;100.00
33280;BME280;20403;43.114;12.434;2023-02-28T03:50:48;99177.25;;;6.18;100.00
33280;BME280;20403;43.114;12.434;2023-02-28T03:53:20;99178.69;;;6.27;100.00
33280;BME280;20403;43.114;12.434;2023-02-28T03:55:59;99177.00;;;6.06;100.00
33280;BME280;20403;43.114;12.434;2023-02-28T03:59:27;99174.66;;;5.90;100.00
33280;BME280;20403;43.114;12.434;2023-02-28T04:01:38;99177.34;;;5.97;100.00
33280;BME280;20403;43.114;12.434;2023-02-28T04:04:07;99174.50;;;5.92;100.00
33280;BME280;20403;43.114;12.434;2023-02-28T04:06:34;99174.66;;;5.90;100.00
33280;BME280;20403;43.114;12.434;2023-02-28T04:08:59;99171.56;;;5.95;100.00
33280;BME280;20403;43.114;12.434;2023-02-28T04:11:44;99178.22;;;5.89;100.00
33280;BME280;20403;43.114;12.434;2023-02-28T04:14:11;99170.84;;;5.86;100.00
33280;BME280;20403;43.114;12.434;2023-02-28T04:16:39;99172.25;;;5.88;100.00
33280;BME280;20403;43.114;12.434;2023-02-28T04:19:06;99178.06;;;5.90;100.00
33280;BME280;20403;43.114;12.434;2023-02-28T04:21:38;99178.66;;;5.93;100.00
33280;BME280;20403;43.114;12.434;2023-02-28T04:24:12;99172.50;;;5.94;100.00
33280;BME280;20403;43.114;12.434;2023-02-28T04:26:52;99176.88;;;5.93;100.00
33280;BME280;20403;43.114;12.434;2023-02-28T04:31:48;99173.56;;;5.71;100.00
33280;BME280;20403;43.114;12.434;2023-02-28T04:34:13;99179.63;;;5.85;100.00
33280;BME280;20403;43.114;12.434;2023-02-28T04:36:39;99176.47;;;5.89;100.00
33280;BME280;20403;43.114;12.434;2023-02-28T04:39:04;99178.84;;;5.91;100.00
33280;BME280;20403;43.114;12.434;2023-02-28T04:41:30;99186.16;;;5.81;100.00
33280;BME280;20403;43.114;12.434;2023-02-28T04:43:55;99186.50;;;5.71;100.00
33280;BME280;20403;43.114;12.434;2023-02-28T04:46:22;99189.34;;;5.83;100.00
33280;BME280;20403;43.114;12.434;2023-02-28T04:48:48;99187.63;;;5.90;100.00
33280;BME280;20403;43.114;12.434;2023-02-28T04:51:15;99192.25;;;5.95;100.00
33280;BME280;20403;43.114;12.434;2023-02-28T04:53:41;99201.59;;;5.96;100.00
33280;BME280;20403;43.114;12.434;2023-02-28T04:56:11;99194.09;;;5.79;100.00
33280;BME280;20403;43.114;12.434;2023-02-28T04:58:37;99187.13;;;5.80;100.00
33280;BME280;20403;43.114;12.434;2023-02-28T05:01:15;99187.56;;;5.83;100.00
33280;BME280;20403;43.114;12.434;2023-02-28T05:03:43;99190.47;;;5.74;100.00
33280;BME280;20403;43.114;12.434;2023-02-28T05:06:09;99190.47;;;5.74;100.00
33280;BME280;20403;43.114;12.434;2023-02-28T05:08:35;99188.69;;;5.74;100.00
33280;BME280;20403;43.114;12.434;2023-02-28T05:11:02;99186.28;;;5.73;100.00
33280;BME280;20403;43.114;12.434;2023-02-28T05:13:28;99194.09;;;5.79;100.00
33280;BME280;20403;43.114;12.434;2023-02-28T05:15:54;99202.00;;;5.71;100.00
33280;BME280;20403;43.114;12.434;2023-02-28T05:18:20;99203.47;;;5.80;100.00
33280;BME280;20403;43.114;12.434;2023-02-28T05:20:45;99203.28;;;5.82;100.00
33280;BME280;20403;43.114;12.434;2023-02-28T05:23:14;99202.84;;;5.78;100.00
33280;BME280;20403;43.114;12.434;2023-02-28T05:25:41;99203.22;;;5.75;100.00
33280;BME280;20403;43.114;12.434;2023-02-28T05:28:07;99210.94;;;5.68;100.00
33280;BME280;20403;43.114;12.434;2023-02-28T05:30:33;99214.03;;;5.57;100.00
33280;BME280;20403;43.114;12.434;2023-02-28T05:32:58;99215.84;;;5.63;100.00
33280;BME280;20403;43.114;12.434;2023-02-28T05:35:24;99214.50;;;5.67;100.00
33280;BME280;20403;43.114;12.434;2023-02-28T05:37:50;99221.59;;;5.80;100.00
33280;BME280;20403;43.114;12.434;2023-02-28T05:40:16;99217.22;;;5.81;100.00
33280;BME280;20403;43.114;12.434;2023-02-28T05:42:41;99210.06;;;5.83;100.00
33280;BME280;20403;43.114;12.434;2023-02-28T05:45:08;99214.06;;;5.85;100.00
33280;BME280;20403;43.114;12.434;2023-02-28T05:47:33;99215.22;;;5.83;100.00
33280;BME280;20403;43.114;12.434;2023-02-28T05:49:59;99215.97;;;5.77;100.00
33280;BME280;20403;43.114;12.434;2023-02-28T05:52:25;99221.16;;;5.77;100.00
33280;BME280;20403;43.114;12.434;2023-02-28T05:54:51;99219.41;;;5.84;100.00
33280;BME280;20403;43.114;12.434;2023-02-28T05:57:16;99221.44;;;5.88;100.00
33280;BME280;20403;43.114;12.434;2023-02-28T05:59:41;99226.19;;;5.85;100.00
33280;BME280;20403;43.114;12.434;2023-02-28T06:02:12;99231.38;;;5.85;100.00
33280;BME280;20403;43.114;12.434;2023-02-28T06:04:39;99240.78;;;5.93;100.00
33280;BME280;20403;43.114;12.434;2023-02-28T06:07:06;99233.16;;;6.06;100.00
33280;BME280;20403;43.114;12.434;2023-02-28T06:09:32;99242.38;;;5.94;100.00
33280;BME280;20403;43.114;12.434;2023-02-28T06:11:58;99237.84;;;5.96;100.00
33280;BME280;20403;43.114;12.434;2023-02-28T06:14:24;99247.41;;;5.95;100.00
33280;BME280;20403;43.114;12.434;2023-02-28T06:16:49;99242.56;;;5.92;100.00
33280;BME280;20403;43.114;12.434;2023-02-28T06:19:15;99248.06;;;6.04;100.00
33280;BME280;20403;43.114;12.434;2023-02-28T06:21:41;99247.69;;;6.07;100.00
33280;BME280;20403;43.114;12.434;2023-02-28T06:24:06;99246.50;;;6.09;100.00
33280;BME280;20403;43.114;12.434;2023-02-28T06:26:32;99255.28;;;6.08;100.00
33280;BME280;20403;43.114;12.434;2023-02-28T06:28:58;99248.78;;;6.19;100.00
33280;BME280;20403;43.114;12.434;2023-02-28T06:31:23;99255.50;;;6.14;100.00
33280;BME280;20403;43.114;12.434;2023-02-28T06:33:51;99246.59;;;6.23;100.00
33280;BME280;20403;43.114;12.434;2023-02-28T06:36:17;99243.56;;;6.47;100.00
33280;BME280;20403;43.114;12.434;2023-02-28T06:38:44;99246.63;;;6.64;100.00
33280;BME280;20403;43.114;12.434;2023-02-28T06:41:09;99245.31;;;6.82;100.00
33280;BME280;20403;43.114;12.434;2023-02-28T06:43:38;99245.72;;;6.85;100.00
33280;BME280;20403;43.114;12.434;2023-02-28T06:46:07;99242.16;;;6.86;100.00
33280;BME280;20403;43.114;12.434;2023-02-28T06:48:32;99243.88;;;6.79;100.00
33280;BME280;20403;43.114;12.434;2023-02-28T06:51:10;99245.28;;;6.75;100.00
33280;BME280;20403;43.114;12.434;2023-02-28T06:53:36;99239.50;;;6.73;100.00
33280;BME280;20403;43.114;12.434;2023-02-28T06:56:06;99247.25;;;6.66;100.00
33280;BME280;20403;43.114;12.434;2023-02-28T06:58:32;99247.25;;;6.66;100.00
33280;BME280;20403;43.114;12.434;2023-02-28T07:00:58;99251.44;;;6.74;100.00
33280;BME280;20403;43.114;12.434;2023-02-28T07:03:23;99254.94;;;6.94;100.00
33280;BME280;20403;43.114;12.434;2023-02-28T07:05:49;99252.31;;;6.88;100.00
33280;BME280;20403;43.114;12.434;2023-02-28T07:08:14;99248.50;;;6.77;100.00
33280;BME280;20403;43.114;12.434;2023-02-28T07:10:40;99256.28;;;6.84;100.00
33280;BME280;20403;43.114;12.434;2023-02-28T07:13:08;99259.13;;;6.96;100.00
33280;BME280;20403;43.114;12.434;2023-02-28T07:15:34;99259.03;;;7.30;100.00
33280;BME280;20403;43.114;12.434;2023-02-28T07:17:59;99260.88;;;7.56;100.00
33280;BME280;20403;43.114;12.434;2023-02-28T07:20:25;99262.88;;;7.68;100.00
33280;BME280;20403;43.114;12.434;2023-02-28T07:22:50;99253.31;;;7.75;100.00
33280;BME280;20403;43.114;12.434;2023-02-28T07:25:25;99262.50;;;7.97;100.00
33280;BME280;20403;43.114;12.434;2023-02-28T07:27:50;99257.06;;;8.26;100.00
33280;BME280;20403;43.114;12.434;2023-02-28T07:30:16;99260.25;;;8.48;100.00
33280;BME280;20403;43.114;12.434;2023-02-28T07:32:42;99263.44;;;8.50;100.00
33280;BME280;20403;43.114;12.434;2023-02-28T07:35:07;99260.09;;;8.23;100.00
33280;BME280;20403;43.114;12.434;2023-02-28T07:37:33;99257.66;;;8.41;100.00
33280;BME280;20403;43.114;12.434;2023-02-28T07:40:03;99249.44;;;8.57;100.00
33280;BME280;20403;43.114;12.434;2023-02-28T07:42:32;99243.44;;;8.57;100.00
33280;BME280;20403;43.114;12.434;2023-02-28T07:44:57;99248.69;;;8.44;100.00
33280;BME280;20403;43.114;12.434;2023-02-28T07:47:24;99251.63;;;8.60;100.00
33280;BME280;20403;43.114;12.434;2023-02-28T07:49:50;99250.22;;;8.71;100.00
33280;BME280;20403;43.114;12.434;2023-02-28T07:52:15;99244.97;;;8.78;100.00
33280;BME280;20403;43.114;12.434;2023-02-28T07:54:41;99255.13;;;8.93;100.00
33280;BME280;20403;43.114;12.434;2023-02-28T07:57:06;99257.09;;;8.97;100.00
33280;BME280;20403;43.114;12.434;2023-02-28T07:59:31;99260.44;;;9.11;100.00
33280;BME280;20403;43.114;12.434;2023-02-28T08:01:57;99260.84;;;9.08;100.00
33280;BME280;20403;43.114;12.434;2023-02-28T08:04:23;99252.25;;;9.01;100.00
33280;BME280;20403;43.114;12.434;2023-02-28T08:06:49;99250.03;;;9.11;100.00
33280;BME280;20403;43.114;12.434;2023-02-28T08:09:17;99255.38;;;9.23;100.00
33280;BME280;20403;43.114;12.434;2023-02-28T08:11:42;99261.69;;;9.40;100.00
33280;BME280;20403;43.114;12.434;2023-02-28T08:14:07;99258.50;;;9.63;100.00
33280;BME280;20403;43.114;12.434;2023-02-28T08:16:33;99265.69;;;9.93;100.00
33280;BME280;20403;43.114;12.434;2023-02-28T08:18:58;99265.81;;;10.30;100.00
33280;BME280;20403;43.114;12.434;2023-02-28T08:21:24;99260.03;;;10.46;100.00
33280;BME280;20403;43.114;12.434;2023-02-28T08:23:50;99256.63;;;10.64;100.00
33280;BME280;20403;43.114;12.434;2023-02-28T08:26:19;99250.56;;;10.52;100.00
33280;BME280;20403;43.114;12.434;2023-02-28T08:28:46;99255.31;;;10.73;100.00
33280;BME280;20403;43.114;12.434;2023-02-28T08:31:13;99252.63;;;10.99;100.00
33280;BME280;20403;43.114;12.434;2023-02-28T08:33:40;99246.75;;;11.03;100.00
33280;BME280;20403;43.114;12.434;2023-02-28T08:36:07;99247.44;;;11.10;100.00
33280;BME280;20403;43.114;12.434;2023-02-28T08:38:33;99242.59;;;11.14;100.00
33280;BME280;20403;43.114;12.434;2023-02-28T08:41:04;99248.47;;;11.09;100.00
33280;BME280;20403;43.114;12.434;2023-02-28T08:43:33;99240.78;;;10.66;100.00
33280;BME280;20403;43.114;12.434;2023-02-28T08:45:59;99242.28;;;10.73;100.00
33280;BME280;20403;43.114;12.434;2023-02-28T08:48:28;99244.75;;;10.68;100.00
33280;BME280;20403;43.114;12.434;2023-02-28T08:51:04;99243.00;;;10.81;100.00
33280;BME280;20403;43.114;12.434;2023-02-28T08:53:31;99246.56;;;10.68;100.00
33280;BME280;20403;43.114;12.434;2023-02-28T08:55:58;99250.09;;;10.92;100.00
33280;BME280;20403;43.114;12.434;2023-02-28T08:58:24;99246.53;;;11.05;100.00
33280;BME280;20403;43.114;12.434;2023-02-28T09:00:50;99250.75;;;11.18;100.00
33280;BME280;20403;43.114;12.434;2023-02-28T09:03:16;99240.38;;;10.81;100.00
33280;BME280;20403;43.114;12.434;2023-02-28T09:05:51;99244.44;;;10.58;100.00
33280;BME280;20403;43.114;12.434;2023-02-28T09:08:17;99247.28;;;10.38;100.00
33280;BME280;20403;43.114;12.434;2023-02-28T09:10:42;99246.72;;;10.36;100.00
33280;BME280;20403;43.114;12.434;2023-02-28T09:13:07;99248.03;;;10.20;100.00
33280;BME280;20403;43.114;12.434;2023-02-28T09:15:33;99244.69;;;10.38;100.00
33280;BME280;20403;43.114;12.434;2023-02-28T09:17:58;99238.41;;;10.94;100.00
33280;BME280;20403;43.114;12.434;2023-02-28T09:20:23;99248.47;;;11.40;100.00
33280;BME280;20403;43.114;12.434;2023-02-28T09:22:49;99243.31;;;11.87;100.00
33280;BME280;20403;43.114;12.434;2023-02-28T09:25:14;99244.38;;;12.21;100.00
33280;BME280;20403;43.114;12.434;2023-02-28T09:27:40;99234.13;;;12.43;100.00
33280;BME280;20403;43.114;12.434;2023-02-28T09:30:06;99230.81;;;12.59;100.00
33280;BME280;20403;43.114;12.434;2023-02-28T09:32:31;99237.03;;;12.58;100.00
33280;BME280;20403;43.114;12.434;2023-02-28T09:34:57;99236.56;;;12.61;100.00
33280;BME280;20403;43.114;12.434;2023-02-28T09:37:22;99235.22;;;12.59;100.00
33280;BME280;20403;43.114;12.434;2023-02-28T09:39:48;99239.88;;;12.69;100.00
33280;BME280;20403;43.114;12.434;2023-02-28T09:42:29;99231.69;;;13.06;100.00
33280;BME280;20403;43.114;12.434;2023-02-28T09:44:57;99241.28;;;13.17;100.00
33280;BME280;20403;43.114;12.434;2023-02-28T09:47:32;99237.84;;;13.28;100.00
33280;BME280;20403;43.114;12.434;2023-02-28T09:50:06;99237.31;;;13.43;100.00
33280;BME280;20403;43.114;12.434;2023-02-28T09:52:32;99235.81;;;13.64;100.00
33280;BME280;20403;43.114;12.434;2023-02-28T09:57:49;99235.19;;;13.74;100.00
33280;BME280;20403;43.114;12.434;2023-02-28T10:05:52;99236.47;;;14.27;97.98
33280;BME280;20403;43.114;12.434;2023-02-28T10:08:36;99240.75;;;14.33;100.00
33280;BME280;20403;43.114;12.434;2023-02-28T10:11:07;99248.00;;;14.26;99.87
33280;BME280;20403;43.114;12.434;2023-02-28T10:16:13;99255.72;;;14.33;97.43
33280;BME280;20403;43.114;12.434;2023-02-28T10:18:50;99245.47;;;14.53;94.55
33280;BME280;20403;43.114;12.434;2023-02-28T10:21:26;99250.88;;;14.63;94.00
33280;BME280;20403;43.114;12.434;2023-02-28T10:23:59;99253.78;;;14.67;92.47
33280;BME280;20403;43.114;12.434;2023-02-28T10:26:28;99254.97;;;14.54;92.33
33280;BME280;20403;43.114;12.434;2023-02-28T10:28:56;99258.97;;;14.62;88.09
33280;BME280;20403;43.114;12.434;2023-02-28T10:31:21;99261.97;;;14.70;81.78
33280;BME280;20403;43.114;12.434;2023-02-28T10:33:47;99247.19;;;14.42;87.09
33280;BME280;20403;43.114;12.434;2023-02-28T10:36:19;99249.81;;;14.25;85.20
33280;BME280;20403;43.114;12.434;2023-02-28T10:38:45;99242.78;;;14.48;91.44
33280;BME280;20403;43.114;12.434;2023-02-28T10:41:12;99241.50;;;14.50;82.50
33280;BME280;20403;43.114;12.434;2023-02-28T10:43:40;99234.16;;;14.31;80.93
33280;BME280;20403;43.114;12.434;2023-02-28T10:51:04;99228.53;;;13.20;98.14
33280;BME280;20403;43.114;12.434;2023-02-28T10:53:34;99229.81;;;12.77;100.00
33280;BME280;20403;43.114;12.434;2023-02-28T10:58:55;99222.88;;;12.31;100.00
33280;BME280;20403;43.114;12.434;2023-02-28T11:03:57;99221.66;;;11.98;100.00
33280;BME280;20403;43.114;12.434;2023-02-28T11:06:29;99231.19;;;12.04;100.00
33280;BME280;20403;43.114;12.434;2023-02-28T11:08:59;99229.50;;;12.10;100.00
33280;BME280;20403;43.114;12.434;2023-02-28T11:11:27;99234.03;;;12.14;100.00
33280;BME280;20403;43.114;12.434;2023-02-28T11:13:56;99226.88;;;12.22;100.00
33280;BME280;20403;43.114;12.434;2023-02-28T11:16:36;99246.22;;;12.09;100.00
33280;BME280;20403;43.114;12.434;2023-02-28T11:19:04;99225.59;;;12.24;100.00
33280;BME280;20403;43.114;12.434;2023-02-28T11:21:36;99225.47;;;12.43;100.00
33280;BME280;20403;43.114;12.434;2023-02-28T11:24:19;99219.91;;;12.51;100.00
33280;BME280;20403;43.114;12.434;2023-02-28T11:26:48;99225.72;;;12.81;100.00
33280;BME280;20403;43.114;12.434;2023-02-28T11:29:20;99218.44;;;12.83;100.00
33280;BME280;20403;43.114;12.434;2023-02-28T11:34:34;99212.97;;;12.45;100.00
33280;BME280;20403;43.114;12.434;2023-02-28T11:37:01;99216.66;;;12.20;100.00
33280;BME280;20403;43.114;12.434;2023-02-28T11:39:31;99208.47;;;12.16;100.00
33280;BME280;20403;43.114;12.434;2023-02-28T11:53:02;99188.00;;;11.90;100.00
33280;BME280;20403;43.114;12.434;2023-02-28T11:55:32;99189.47;;;11.74;100.00
33280;BME280;20403;43.114;12.434;2023-02-28T11:58:23;99178.56;;;11.77;100.00
33280;BME280;20403;43.114;12.434;2023-02-28T12:05:58;99180.56;;;11.28;100.00
33280;BME280;20403;43.114;12.434;2023-02-28T12:23:09;99193.53;;;11.46;100.00
33280;BME280;20403;43.114;12.434;2023-02-28T12:25:40;99184.44;;;11.49;100.00
33280;BME280;20403;43.114;12.434;2023-02-28T12:28:12;99178.72;;;11.17;100.00
33280;BME280;20403;43.114;12.434;2023-02-28T12:30:44;99180.06;;;11.19;100.00
33280;BME280;20403;43.114;12.434;2023-02-28T12:33:14;99164.81;;;11.04;100.00
33280;BME280;20403;43.114;12.434;2023-02-28T12:35:52;99173.50;;;10.86;100.00
33280;BME280;20403;43.114;12.434;2023-02-28T12:38:23;99159.16;;;10.65;100.00
33280;BME280;20403;43.114;12.434;2023-02-28T12:40:55;99163.84;;;10.57;100.00
33280;BME280;20403;43.114;12.434;2023-02-28T12:43:27;99158.00;;;10.43;100.00
33280;BME280;20403;43.114;12.434;2023-02-28T12:45:59;99153.59;;;10.43;100.00
33280;BME280;20403;43.114;12.434;2023-02-28T12:48:30;99160.16;;;10.27;100.00
33280;BME280;20403;43.114;12.434;2023-02-28T12:50:57;99162.59;;;10.29;100.00
33280;BME280;20403;43.114;12.434;2023-02-28T12:59:04;99161.19;;;10.45;100.00
33280;BME280;20403;43.114;12.434;2023-02-28T13:09:38;99151.34;;;11.07;100.00
33280;BME280;20403;43.114;12.434;2023-02-28T13:12:14;99142.72;;;11.07;100.00
33280;BME280;20403;43.114;12.434;2023-02-28T13:14:42;99159.25;;;11.54;100.00
33280;BME280;20403;43.114;12.434;2023-02-28T13:19:40;99139.06;;;11.97;100.00
33280;BME280;20403;43.114;12.434;2023-02-28T13:22:20;99130.69;;;12.24;100.00
33280;BME280;20403;43.114;12.434;2023-02-28T13:25:01;99138.41;;;12.30;100.00
33280;BME280;20403;43.114;12.434;2023-02-28T13:27:38;99136.00;;;11.88;100.00
33280;BME280;20403;43.114;12.434;2023-02-28T13:38:43;99125.66;;;11.46;100.00
33280;BME280;20403;43.114;12.434;2023-02-28T13:41:43;99121.78;;;11.61;100.00
33280;BME280;20403;43.114;12.434;2023-02-28T13:51:55;99124.13;;;11.27;100.00
33280;BME280;20403;43.114;12.434;2023-02-28T13:59:46;99118.50;;;10.88;100.00
33280;BME280;20403;43.114;12.434;2023-02-28T14:05:20;99110.31;;;10.42;100.00
33280;BME280;20403;43.114;12.434;2023-02-28T14:07:56;99106.16;;;10.35;100.00
33280;BME280;20403;43.114;12.434;2023-02-28T14:10:31;99104.59;;;10.34;100.00
33280;BME280;20403;43.114;12.434;2023-02-28T14:15:58;99097.31;;;10.54;100.00
33280;BME280;20403;43.114;12.434;2023-02-28T14:18:34;99093.00;;;10.60;100.00
33280;BME280;20403;43.114;12.434;2023-02-28T14:21:09;99101.25;;;10.45;100.00
33280;BME280;20403;43.114;12.434;2023-02-28T14:35:03;99124.03;;;9.94;100.00
33280;BME280;20403;43.114;12.434;2023-02-28T14:37:33;99113.09;;;9.85;100.00
33280;BME280;20403;43.114;12.434;2023-02-28T14:40:02;99112.19;;;9.80;100.00
33280;BME280;20403;43.114;12.434;2023-02-28T14:42:36;99112.38;;;9.78;100.00
33280;BME280;20403;43.114;12.434;2023-02-28T14:45:20;99105.28;;;9.85;100.00
33280;BME280;20403;43.114;12.434;2023-02-28T14:47:47;99104.13;;;9.81;100.00
33280;BME280;20403;43.114;12.434;2023-02-28T14:50:20;99110.56;;;9.79;100.00
33280;BME280;20403;43.114;12.434;2023-02-28T14:52:47;99105.28;;;9.85;100.00
33280;BME280;20403;43.114;12.434;2023-02-28T14:55:17;99099.72;;;9.82;100.00
33280;BME280;20403;43.114;12.434;2023-02-28T14:57:55;99095.72;;;9.79;100.00
33280;BME280;20403;43.114;12.434;2023-02-28T15:00:25;99085.69;;;9.83;100.00
33280;BME280;20403;43.114;12.434;2023-02-28T15:02:51;99086.94;;;9.80;100.00
33280;BME280;20403;43.114;12.434;2023-02-28T15:05:28;99084.19;;;9.94;100.00
33280;BME280;20403;43.114;12.434;2023-02-28T15:08:13;99095.59;;;9.93;100.00
33280;BME280;20403;43.114;12.434;2023-02-28T15:10:42;99080.84;;;9.86;100.00
33280;BME280;20403;43.114;12.434;2023-02-28T15:13:12;99076.78;;;9.91;100.00
33280;BME280;20403;43.114;12.434;2023-02-28T15:15:46;99080.56;;;9.95;100.00
33280;BME280;20403;43.114;12.434;2023-02-28T15:21:16;99083.94;;;9.77;100.00
33280;BME280;20403;43.114;12.434;2023-02-28T15:23:45;99087.69;;;9.62;100.00
33280;BME280;20403;43.114;12.434;2023-02-28T15:26:18;99085.59;;;9.53;100.00
33280;BME280;20403;43.114;12.434;2023-02-28T15:28:45;99096.41;;;9.50;100.00